createdAt,value
2023-02-23T00:01:54.109Z,47.23
2023-02-23T00:04:24.647Z,47.70
2023-02-23T00:06:53.710Z,48.97
2023-02-23T00:09:24.411Z,50.23
2023-02-23T00:11:54.560Z,44.63
2023-02-23T00:14:27.269Z,47.53
2023-02-23T00:16:55.409Z,48.03
2023-02-23T00:19:25.680Z,48.33
2023-02-23T00:21:54.789Z,47.37
2023-02-23T00:24:23.253Z,48.83
2023-02-23T00:26:51.593Z,49.70
2023-02-23T00:29:22.428Z,46.97
2023-02-23T00:31:52.796Z,48.47
2023-02-23T00:34:23.525Z,48.53
2023-02-23T00:36:55.319Z,50.97
2023-02-23T00:39:26.828Z,53.20
2023-02-23T00:41:56.530Z,52.10
2023-02-23T00:44:25.674Z,53.87
2023-02-23T00:46:54.297Z,54.23
2023-02-23T00:49:23.668Z,55.20
2023-02-23T00:51:53.302Z,52.37
2023-02-23T00:54:23.086Z,54.60
2023-02-23T00:56:51.400Z,53.30
2023-02-23T00:59:20.116Z,52.97
2023-02-23T01:01:48.298Z,57.30
2023-02-23T01:04:16.908Z,55.90
2023-02-23T01:06:46.282Z,55.63
2023-02-23T01:09:27.137Z,53.90
2023-02-23T01:11:57.506Z,53.17
2023-02-23T01:14:26.256Z,52.53
2023-02-23T01:16:54.670Z,59.07
2023-02-23T01:19:23.082Z,53.37
2023-02-23T01:21:51.199Z,52.53
2023-02-23T01:24:20.612Z,53.90
2023-02-23T01:26:48.756Z,53.50
2023-02-23T01:29:18.806Z,51.37
2023-02-23T01:31:48.785Z,51.93
2023-02-23T01:34:21.645Z,52.10
2023-02-23T01:36:49.808Z,54.10
2023-02-23T01:39:21.268Z,50.03
2023-02-23T01:41:51.724Z,53.83
2023-02-23T01:44:58.428Z,52.17
2023-02-23T01:47:27.327Z,52.40
2023-02-23T01:49:55.543Z,51.33
2023-02-23T01:52:23.654Z,55.70
2023-02-23T01:54:55.752Z,56.00
2023-02-23T01:57:26.924Z,54.53
2023-02-23T01:59:55.681Z,56.70
2023-02-23T02:02:32.939Z,59.17
2023-02-23T02:05:02.010Z,56.07
2023-02-23T02:07:35.170Z,58.57
2023-02-23T02:10:22.918Z,57.50
2023-02-23T02:12:56.011Z,58.77
2023-02-23T02:15:29.582Z,56.47
2023-02-23T02:18:12.440Z,55.27
2023-02-23T02:21:13.333Z,57.70
2023-02-23T02:24:30.351Z,54.23
2023-02-23T02:27:17.739Z,58.07
2023-02-23T02:30:18.420Z,60.13
2023-02-23T02:33:11.871Z,60.77
2023-02-23T02:36:18.816Z,58.17
2023-02-23T02:38:56.322Z,52.63
2023-02-23T02:41:36.939Z,58.30
2023-02-23T02:44:16.246Z,59.77
2023-02-23T02:46:48.997Z,56.20
2023-02-23T02:49:24.148Z,57.30
2023-02-23T02:52:00.051Z,56.07
2023-02-23T02:54:35.082Z,54.83
2023-02-23T02:57:05.497Z,59.03
2023-02-23T03:00:02.019Z,56.47
2023-02-23T03:02:50.049Z,42.47
2023-02-23T03:05:38.342Z,57.53
2023-02-23T03:08:32.948Z,57.27
2023-02-23T03:11:23.858Z,58.10
2023-02-23T03:14:30.777Z,57.20
2023-02-23T03:17:24.576Z,55.90
2023-02-23T03:20:16.429Z,56.33
2023-02-23T03:23:11.974Z,58.97
2023-02-23T03:26:10.168Z,57.93
2023-02-23T03:29:08.328Z,58.43
2023-02-23T03:32:01.688Z,56.57
2023-02-23T03:34:52.314Z,57.60
2023-02-23T03:37:43.954Z,54.80
2023-02-23T03:40:35.052Z,56.40
2023-02-23T03:43:24.632Z,59.30
2023-02-23T03:46:14.057Z,52.53
2023-02-23T03:49:01.674Z,56.73
2023-02-23T03:51:50.696Z,56.90
2023-02-23T03:54:40.211Z,55.17
2023-02-23T03:57:28.585Z,57.23
2023-02-23T04:00:17.405Z,63.40
2023-02-23T04:03:08.583Z,56.33
2023-02-23T04:05:57.104Z,55.33
2023-02-23T04:08:47.597Z,61.23
2023-02-23T04:11:42.000Z,53.00
2023-02-23T04:14:16.093Z,61.43
2023-02-23T04:16:43.954Z,56.80
2023-02-23T04:19:13.993Z,59.27
2023-02-23T04:21:42.109Z,64.30
2023-02-23T04:24:11.340Z,62.63
2023-02-23T04:26:39.372Z,61.67
2023-02-23T04:29:07.596Z,64.73
2023-02-23T04:31:35.742Z,62.40
2023-02-23T04:34:04.702Z,61.50
2023-02-23T04:36:34.173Z,61.63
2023-02-23T04:39:02.286Z,63.40
2023-02-23T04:41:30.320Z,60.83
2023-02-23T04:43:58.596Z,61.30
2023-02-23T04:46:26.883Z,61.23
2023-02-23T04:48:54.887Z,64.87
2023-02-23T04:51:22.956Z,53.77
2023-02-23T04:53:52.604Z,66.17
2023-02-23T04:56:20.682Z,69.33
2023-02-23T04:58:48.785Z,70.27
2023-02-23T05:01:17.540Z,72.97
2023-02-23T05:03:46.076Z,72.97
2023-02-23T05:06:14.595Z,67.07
2023-02-23T05:08:42.650Z,67.10
2023-02-23T05:11:12.556Z,67.70
2023-02-23T05:13:40.645Z,70.70
2023-02-23T05:16:09.428Z,71.53
2023-02-23T05:18:37.466Z,80.53
2023-02-23T05:21:07.085Z,74.40
2023-02-23T05:23:36.224Z,69.07
2023-02-23T05:26:06.941Z,76.27
2023-02-23T05:28:37.519Z,74.40
2023-02-23T05:31:06.026Z,72.87
2023-02-23T05:33:35.176Z,77.03
2023-02-23T05:36:06.695Z,74.33
2023-02-23T05:38:34.756Z,71.80
2023-02-23T05:41:06.308Z,73.80
2023-02-23T05:43:35.786Z,75.10
2023-02-23T05:46:07.599Z,70.77
2023-02-23T05:48:35.815Z,74.07
2023-02-23T05:51:04.397Z,69.03
2023-02-23T05:53:32.681Z,74.20
2023-02-23T05:56:02.368Z,76.77
2023-02-23T05:58:31.010Z,80.30
2023-02-23T06:01:00.913Z,78.43
2023-02-23T06:03:29.318Z,77.27
2023-02-23T06:05:59.114Z,81.20
2023-02-23T06:08:27.548Z,76.33
2023-02-23T06:10:55.615Z,78.40
2023-02-23T06:13:23.761Z,78.20
2023-02-23T06:15:51.889Z,80.20
2023-02-23T06:18:22.218Z,84.60
2023-02-23T06:20:50.589Z,86.57
2023-02-23T06:23:19.213Z,89.00
2023-02-23T06:25:48.574Z,82.47
2023-02-23T06:28:16.741Z,83.97
2023-02-23T06:30:46.749Z,86.63
2023-02-23T06:33:14.964Z,88.00
2023-02-23T06:35:44.525Z,87.47
2023-02-23T06:38:12.614Z,87.87
2023-02-23T06:40:41.524Z,92.10
2023-02-23T06:43:09.602Z,101.80
2023-02-23T06:45:37.712Z,85.40
2023-02-23T06:48:06.369Z,82.97
2023-02-23T06:50:34.646Z,91.90
2023-02-23T06:53:05.009Z,102.47
2023-02-23T06:55:33.284Z,88.07
2023-02-23T06:58:01.443Z,100.03
2023-02-23T07:00:30.657Z,91.40
2023-02-23T07:02:59.814Z,100.90
2023-02-23T07:05:28.344Z,94.17
2023-02-23T07:07:56.430Z,96.37
2023-02-23T07:10:25.904Z,100.20
2023-02-23T07:12:55.369Z,98.70
2023-02-23T07:15:23.569Z,101.17
2023-02-23T07:17:52.842Z,97.73
2023-02-23T07:20:21.148Z,89.43
2023-02-23T07:22:49.212Z,95.80
2023-02-23T07:25:17.746Z,97.03
2023-02-23T07:27:47.551Z,94.93
2023-02-23T07:30:18.165Z,98.57
2023-02-23T07:32:46.316Z,100.73
2023-02-23T07:35:14.486Z,97.53
2023-02-23T07:37:42.553Z,107.07
2023-02-23T07:40:11.861Z,109.87
2023-02-23T07:42:40.181Z,105.60
2023-02-23T07:45:11.179Z,116.60
2023-02-23T07:47:39.543Z,123.83
2023-02-23T07:50:09.774Z,148.60
2023-02-23T07:52:38.802Z,150.47
2023-02-23T07:55:08.104Z,133.37
2023-02-23T07:57:36.432Z,149.00
2023-02-23T08:00:05.632Z,152.07
2023-02-23T08:02:42.203Z,144.03
2023-02-23T08:05:10.793Z,149.73
2023-02-23T08:07:39.191Z,152.17
2023-02-23T08:10:08.095Z,165.40
2023-02-23T08:12:36.949Z,177.40
2023-02-23T08:15:08.373Z,169.77
2023-02-23T08:17:36.764Z,163.77
2023-02-23T08:20:07.963Z,159.33
2023-02-23T08:22:48.403Z,154.20
2023-02-23T08:25:18.459Z,151.10
2023-02-23T08:27:46.826Z,152.30
2023-02-23T08:30:15.631Z,150.90
2023-02-23T08:32:43.756Z,132.40
2023-02-23T08:35:13.730Z,144.90
2023-02-23T08:37:42.461Z,143.60
2023-02-23T08:40:12.610Z,138.60
2023-02-23T08:42:40.718Z,134.73
2023-02-23T08:45:09.901Z,143.27
2023-02-23T08:47:37.936Z,125.50
2023-02-23T08:50:06.877Z,135.37
2023-02-23T08:52:36.400Z,120.80
2023-02-23T08:55:04.601Z,127.43
2023-02-23T08:57:34.190Z,124.80
2023-02-23T09:00:02.821Z,136.27
2023-02-23T09:02:30.935Z,125.27
2023-02-23T09:04:59.129Z,121.67
2023-02-23T09:07:27.497Z,130.53
2023-02-23T09:09:58.270Z,116.80
2023-02-23T09:12:26.864Z,129.43
2023-02-23T09:14:54.917Z,130.97
2023-02-23T09:17:23.971Z,124.30
2023-02-23T09:19:52.542Z,130.57
2023-02-23T09:22:20.651Z,132.30
2023-02-23T09:24:48.810Z,133.87
2023-02-23T09:27:18.347Z,127.83
2023-02-23T09:29:46.593Z,122.67
2023-02-23T09:32:14.745Z,129.10
2023-02-23T09:34:42.946Z,123.37
2023-02-23T09:37:10.957Z,136.03
2023-02-23T09:39:39.345Z,110.73
2023-02-23T09:42:33.803Z,122.50
2023-02-23T09:45:20.583Z,120.27
2023-02-23T09:48:02.159Z,124.30
2023-02-23T09:50:32.509Z,122.83
2023-02-23T09:53:04.211Z,117.57
2023-02-23T09:55:33.741Z,115.97
2023-02-23T09:58:08.922Z,109.63
2023-02-23T10:00:42.993Z,115.03
2023-02-23T10:03:22.830Z,96.83
2023-02-23T10:05:56.696Z,95.83
2023-02-23T10:08:41.497Z,100.50
2023-02-23T10:11:22.232Z,93.20
2023-02-23T10:14:04.650Z,92.60
2023-02-23T10:16:50.757Z,83.57
2023-02-23T10:19:27.348Z,83.80
2023-02-23T10:21:59.121Z,83.93
2023-02-23T10:24:31.021Z,88.40
2023-02-23T10:27:02.247Z,86.27
2023-02-23T10:29:35.980Z,79.83
2023-02-23T10:32:08.923Z,82.50
2023-02-23T10:34:37.783Z,82.83
2023-02-23T10:37:07.784Z,77.63
2023-02-23T10:39:35.930Z,86.00
2023-02-23T10:42:07.678Z,84.40
2023-02-23T10:44:37.160Z,81.77
2023-02-23T10:47:12.503Z,76.30
2023-02-23T10:49:44.226Z,81.00
2023-02-23T10:52:15.377Z,84.93
2023-02-23T10:54:48.207Z,77.70
2023-02-23T10:57:26.613Z,79.33
2023-02-23T11:00:27.611Z,76.60
2023-02-23T11:02:59.242Z,83.53
2023-02-23T11:05:32.858Z,83.27
2023-02-23T11:08:26.156Z,86.83
2023-02-23T11:11:19.144Z,82.77
2023-02-23T11:13:49.465Z,83.63
2023-02-23T11:16:21.487Z,90.23
2023-02-23T11:18:55.687Z,102.27
2023-02-23T11:21:26.795Z,95.87
2023-02-23T11:23:58.152Z,93.33
2023-02-23T11:26:31.777Z,95.03
2023-02-23T11:29:05.524Z,102.73
2023-02-23T11:31:36.954Z,97.37
2023-02-23T11:34:06.950Z,101.50
2023-02-23T11:36:36.623Z,99.77
2023-02-23T11:39:19.351Z,96.37
2023-02-23T11:41:47.652Z,90.07
2023-02-23T11:44:23.858Z,95.80
2023-02-23T11:46:53.860Z,93.67
2023-02-23T11:49:28.192Z,94.20
2023-02-23T11:51:56.430Z,99.23
2023-02-23T11:54:29.627Z,97.70
2023-02-23T11:57:02.269Z,98.23
2023-02-23T11:59:33.856Z,109.50
2023-02-23T12:02:20.773Z,101.87
2023-02-23T12:04:49.027Z,111.13
2023-02-23T12:07:42.527Z,122.27
2023-02-23T12:10:22.595Z,112.60
2023-02-23T12:12:57.168Z,122.57
2023-02-23T12:15:37.190Z,129.37
2023-02-23T12:18:15.396Z,118.37
2023-02-23T12:20:48.504Z,134.13
2023-02-23T12:23:19.900Z,130.73
2023-02-23T12:25:52.340Z,141.63
2023-02-23T12:28:28.014Z,138.23
2023-02-23T12:31:01.232Z,129.33
2023-02-23T12:33:36.515Z,138.77
2023-02-23T12:36:13.970Z,144.23
2023-02-23T12:38:50.272Z,139.43
2023-02-23T12:41:27.019Z,133.43
2023-02-23T12:44:00.765Z,126.90
2023-02-23T12:46:32.476Z,129.47
2023-02-23T12:49:17.009Z,126.40
2023-02-23T12:51:52.435Z,144.40
2023-02-23T12:54:20.877Z,136.30
2023-02-23T12:56:59.721Z,128.73
2023-02-23T12:59:47.030Z,125.00
2023-02-23T13:02:22.830Z,128.03
2023-02-23T13:05:22.562Z,120.63
2023-02-23T13:08:12.737Z,122.60
2023-02-23T13:10:49.879Z,114.40
2023-02-23T13:13:31.181Z,117.13
2023-02-23T13:16:07.974Z,114.23
2023-02-23T13:18:39.813Z,110.17
2023-02-23T13:21:20.103Z,103.90
2023-02-23T13:23:56.960Z,98.10
2023-02-23T13:26:37.127Z,95.17
2023-02-23T13:29:15.922Z,84.40
2023-02-23T13:31:46.407Z,92.87
2023-02-23T13:34:24.868Z,92.67
2023-02-23T13:36:55.733Z,81.57
2023-02-23T13:39:50.031Z,82.67
2023-02-23T13:42:31.555Z,83.57
2023-02-23T13:45:22.611Z,86.00
2023-02-23T13:47:57.711Z,90.03
2023-02-23T13:50:32.679Z,86.07
2023-02-23T13:53:06.858Z,63.07
2023-02-23T13:55:50.365Z,85.57
2023-02-23T13:58:23.716Z,84.10
2023-02-23T14:01:06.264Z,92.23
2023-02-23T14:03:42.368Z,87.60
2023-02-23T14:06:15.177Z,88.63
2023-02-23T14:08:47.356Z,87.57
2023-02-23T14:11:39.902Z,78.93
2023-02-23T14:14:08.059Z,88.77
2023-02-23T14:16:37.126Z,87.57
2023-02-23T14:19:32.788Z,86.83
2023-02-23T14:22:04.113Z,80.40
2023-02-23T14:24:33.616Z,85.17
2023-02-23T14:27:41.588Z,78.13
2023-02-23T14:30:25.511Z,75.53
2023-02-23T14:32:54.733Z,76.43
2023-02-23T14:35:44.880Z,73.13
2023-02-23T14:38:24.939Z,73.60
2023-02-23T14:40:55.632Z,68.43
2023-02-23T14:43:43.689Z,67.33
2023-02-23T14:46:20.158Z,73.93
2023-02-23T14:49:00.040Z,65.60
2023-02-23T14:51:42.346Z,65.00
2023-02-23T14:54:23.585Z,68.23
2023-02-23T14:56:56.728Z,68.30
2023-02-23T14:59:27.334Z,65.03
2023-02-23T15:01:57.008Z,62.83
2023-02-23T15:04:29.957Z,60.60
2023-02-23T15:07:01.659Z,60.70
2023-02-23T15:09:34.976Z,60.67
2023-02-23T15:12:13.666Z,60.10
2023-02-23T15:14:42.583Z,60.27
2023-02-23T15:17:19.634Z,57.63
2023-02-23T15:19:50.802Z,57.17
2023-02-23T15:22:25.902Z,55.30
2023-02-23T15:24:56.919Z,63.73
2023-02-23T15:27:31.837Z,61.07
2023-02-23T15:29:59.883Z,58.40
2023-02-23T15:32:28.132Z,58.50
2023-02-23T15:34:56.663Z,59.33
2023-02-23T15:37:32.311Z,54.20
2023-02-23T15:40:04.225Z,60.23
2023-02-23T15:42:38.960Z,58.90
2023-02-23T15:45:17.881Z,52.83
2023-02-23T15:47:46.063Z,50.43
2023-02-23T15:50:35.925Z,30.50
2023-02-23T15:53:13.265Z,20.47
2023-02-23T15:55:44.181Z,17.07
2023-02-23T15:58:21.880Z,13.93
2023-02-23T16:00:55.781Z,15.43
2023-02-23T16:03:25.783Z,22.20
2023-02-23T16:06:02.092Z,29.50
2023-02-23T16:08:31.040Z,30.33
2023-02-23T16:11:07.480Z,28.40
2023-02-23T16:13:37.083Z,27.60
2023-02-23T16:16:09.998Z,37.77
2023-02-23T16:18:42.072Z,34.43
2023-02-23T16:21:17.864Z,28.60
2023-02-23T16:23:49.190Z,28.37
2023-02-23T16:26:24.104Z,28.13
2023-02-23T16:28:58.126Z,30.70
2023-02-23T16:31:43.400Z,34.33
2023-02-23T16:34:25.528Z,31.17
2023-02-23T16:36:59.803Z,24.67
2023-02-23T16:39:30.515Z,27.60
2023-02-23T16:41:59.696Z,29.03
2023-02-23T16:44:42.971Z,29.70
2023-02-23T16:47:32.964Z,32.97
2023-02-23T16:50:13.664Z,31.10
2023-02-23T16:52:51.702Z,30.13
2023-02-23T16:55:25.673Z,37.57
2023-02-23T16:57:57.155Z,27.07
2023-02-23T17:00:28.851Z,26.30
2023-02-23T17:02:58.644Z,30.13
2023-02-23T17:05:27.370Z,31.40
2023-02-23T17:07:58.267Z,30.17
2023-02-23T17:10:30.815Z,32.70
2023-02-23T17:13:02.434Z,33.30
2023-02-23T17:15:35.142Z,24.00
2023-02-23T17:18:03.977Z,23.30
2023-02-23T17:20:32.752Z,26.23
2023-02-23T17:23:02.864Z,38.53
2023-02-23T17:25:31.333Z,28.93
2023-02-23T17:28:00.749Z,25.90
2023-02-23T17:30:31.118Z,24.03
2023-02-23T17:33:01.975Z,23.93
2023-02-23T17:35:32.575Z,19.47
2023-02-23T17:38:01.989Z,26.53
2023-02-23T17:40:31.042Z,23.30
2023-02-23T17:43:01.084Z,22.27
2023-02-23T17:45:31.553Z,30.03
2023-02-23T17:48:00.275Z,26.60
2023-02-23T17:50:28.688Z,25.30
2023-02-23T17:52:57.826Z,25.40
2023-02-23T17:55:26.176Z,19.67
2023-02-23T17:57:54.284Z,21.43
2023-02-23T18:00:22.685Z,19.30
2023-02-23T18:02:52.177Z,22.13
2023-02-23T18:05:20.634Z,22.53
2023-02-23T18:07:49.018Z,18.30
2023-02-23T18:10:17.932Z,27.90
2023-02-23T18:12:46.372Z,26.57
2023-02-23T18:15:14.487Z,22.93
2023-02-23T18:17:42.600Z,28.83
2023-02-23T18:20:17.122Z,23.60
2023-02-23T18:22:45.563Z,22.47
2023-02-23T18:25:21.953Z,19.70
2023-02-23T18:27:54.443Z,20.47
2023-02-23T18:30:24.572Z,29.50
2023-02-23T18:32:56.116Z,31.20
2023-02-23T18:35:25.801Z,28.60
2023-02-23T18:37:54.031Z,20.93
2023-02-23T18:40:23.822Z,23.93
2023-02-23T18:42:52.227Z,22.00
2023-02-23T18:45:20.669Z,21.00
2023-02-23T18:47:48.805Z,25.23
2023-02-23T18:50:19.198Z,22.30
2023-02-23T18:52:51.395Z,23.37
2023-02-23T18:55:22.103Z,25.40
2023-02-23T18:57:50.787Z,22.20
2023-02-23T19:00:20.555Z,23.43
2023-02-23T19:02:49.261Z,21.87
2023-02-23T19:05:20.899Z,20.43
2023-02-23T19:07:51.502Z,19.80
2023-02-23T19:10:19.929Z,16.90
2023-02-23T19:12:48.066Z,22.60
2023-02-23T19:15:17.019Z,19.33
2023-02-23T19:17:46.509Z,17.90
2023-02-23T19:20:15.879Z,19.40
2023-02-23T19:22:45.442Z,24.80
2023-02-23T19:25:15.257Z,18.10
2023-02-23T19:27:43.996Z,20.33
2023-02-23T19:30:14.525Z,20.07
2023-02-23T19:32:43.905Z,21.47
2023-02-23T19:35:15.168Z,23.70
2023-02-23T19:37:51.029Z,21.43
2023-02-23T19:40:23.956Z,18.50
2023-02-23T19:42:54.060Z,23.47
2023-02-23T19:45:24.958Z,25.10
2023-02-23T19:47:53.947Z,24.93
2023-02-23T19:50:22.657Z,21.43
2023-02-23T19:52:51.145Z,21.27
2023-02-23T19:55:21.193Z,22.60
2023-02-23T19:57:49.341Z,14.93
2023-02-23T20:00:18.235Z,17.57
2023-02-23T20:02:47.599Z,18.03
2023-02-23T20:06:05.857Z,20.30
2023-02-23T20:09:16.278Z,18.47
2023-02-23T20:11:45.899Z,16.60
2023-02-23T20:14:13.992Z,22.30
2023-02-23T20:16:42.168Z,22.83
2023-02-23T20:19:11.506Z,18.33
2023-02-23T20:21:39.705Z,17.63
2023-02-23T20:24:08.263Z,23.80
2023-02-23T20:26:37.979Z,21.87
2023-02-23T20:29:11.505Z,22.30
2023-02-23T20:31:41.966Z,21.70
2023-02-23T20:34:12.089Z,16.73
2023-02-23T20:36:40.409Z,23.77
2023-02-23T20:39:10.320Z,21.53
2023-02-23T20:41:44.003Z,17.30
2023-02-23T20:44:14.041Z,18.40
2023-02-23T20:46:43.740Z,18.50
2023-02-23T20:49:12.687Z,14.67
2023-02-23T20:51:42.311Z,17.10
2023-02-23T20:54:11.239Z,20.53
2023-02-23T20:56:40.158Z,20.07
2023-02-23T20:59:11.073Z,21.57
2023-02-23T21:01:42.058Z,24.67
2023-02-23T21:04:12.710Z,16.77
2023-02-23T21:06:41.080Z,14.20
2023-02-23T21:09:12.672Z,18.77
2023-02-23T21:11:40.878Z,17.13
2023-02-23T21:14:08.940Z,14.03
2023-02-23T21:16:40.816Z,12.27
2023-02-23T21:19:13.795Z,22.50
2023-02-23T21:21:43.083Z,14.97
2023-02-23T21:24:12.066Z,14.67
2023-02-23T21:26:43.083Z,16.67
2023-02-23T21:29:16.366Z,14.10
2023-02-23T21:31:50.047Z,13.53
2023-02-23T21:34:21.625Z,15.33
2023-02-23T21:36:52.339Z,13.00
2023-02-23T21:39:22.174Z,14.27
2023-02-23T21:41:51.416Z,19.53
2023-02-23T21:44:19.532Z,12.80
2023-02-23T21:46:47.963Z,15.10
2023-02-23T21:49:19.434Z,14.33
2023-02-23T21:51:47.754Z,16.53
2023-02-23T21:54:16.136Z,19.67
2023-02-23T21:56:44.263Z,20.90
2023-02-23T21:59:13.093Z,16.23
2023-02-23T22:01:42.930Z,13.87
2023-02-23T22:04:14.615Z,13.83
2023-02-23T22:06:45.489Z,14.53
2023-02-23T22:09:16.002Z,15.93
2023-02-23T22:11:46.927Z,18.40
2023-02-23T22:14:16.669Z,16.93
2023-02-23T22:16:45.744Z,19.03
2023-02-23T22:19:14.140Z,11.97
2023-02-23T22:21:44.631Z,11.80
2023-02-23T22:24:13.825Z,13.40
2023-02-23T22:26:53.939Z,15.93
2023-02-23T22:29:23.183Z,13.10
2023-02-23T22:31:51.757Z,18.33
2023-02-23T22:34:19.960Z,13.10
2023-02-23T22:36:50.183Z,10.63
2023-02-23T22:39:18.729Z,11.40
2023-02-23T22:41:47.464Z,15.10
2023-02-23T22:44:17.827Z,11.67
2023-02-23T22:46:48.222Z,13.90
2023-02-23T22:49:16.769Z,14.27
2023-02-23T22:51:45.451Z,11.83
2023-02-23T22:54:15.432Z,14.70
2023-02-23T22:56:44.092Z,11.53
2023-02-23T22:59:17.501Z,13.13
2023-02-23T23:01:47.590Z,12.77
2023-02-23T23:04:16.110Z,11.97
2023-02-23T23:06:44.516Z,12.90
2023-02-23T23:09:16.414Z,9.70
2023-02-23T23:11:44.883Z,8.60
2023-02-23T23:14:13.919Z,10.77
2023-02-23T23:16:47.866Z,12.93
2023-02-23T23:19:18.980Z,11.90
2023-02-23T23:21:47.494Z,12.70
2023-02-23T23:24:16.883Z,9.60
2023-02-23T23:26:45.211Z,9.23
2023-02-23T23:29:15.759Z,17.30
2023-02-23T23:31:46.463Z,11.83
2023-02-23T23:34:16.649Z,13.83
2023-02-23T23:36:49.099Z,10.50
2023-02-23T23:39:20.355Z,12.50
2023-02-23T23:41:49.896Z,11.83
2023-02-23T23:44:19.904Z,10.07
2023-02-23T23:46:50.657Z,14.00
2023-02-23T23:49:21.064Z,9.23
2023-02-23T23:51:50.877Z,8.13
2023-02-23T23:54:23.171Z,13.70
2023-02-23T23:56:51.854Z,11.87
2023-02-23T23:59:21.759Z,11.30
